Terminal Aerodrome Forecast
Issued by NWS

Home | Current Version | Previous Version | Text Only | Print | Product List | Glossary On
Versions: 1 2 3 4 5 6 7 8 9 10 11 12 13 14 15 16 17 18 19 20 21 22 23 24 25 26 27
000
FTUS45 KBOU 241733
TAFAPA
TAF
KAPA 241733Z 2418/2518 15008KT P6SM SCT220
     FM242300 15006KT P6SM FEW120 BKN220
     FM250300 19008KT P6SM FEW120 BKN220
     FM251500 16007KT P6SM BKN220=

USA.gov is the U.S. government's official web portal to all federal, state and local government web resources and services.